Time;durP1;ratioP1;P1;durP2;ratioP2;P2;SDS_P1;SDS_P2;PMS_P1;PMS_P2;Temp;Humidity;BMP_temperature;BMP_pressure;BME280_temperature;BME280_humidity;BME280_pressure;Samples;Min_cycle;Max_cycle;Signal;HPM_P1;HPM_P2
2021/06/10 00:00:22;;;;;;;1.38;0.70;;;18.10;59.10;;;;;;2071047;28;20026;-84
2021/06/10 00:01:22;;;;;;;1.15;0.65;;;18.10;59.10;;;;;;2070531;28;20038;-83
2021/06/10 00:02:24;;;;;;;1.80;0.80;;;18.10;59.10;;;;;;2067267;28;20116;-84
2021/06/10 00:03:24;;;;;;;1.10;0.70;;;18.10;59.70;;;;;;2065401;28;20077;-84
2021/06/10 00:04:25;;;;;;;2.30;0.75;;;18.10;59.10;;;;;;2070302;28;20113;-84
2021/06/10 00:05:26;;;;;;;1.13;0.70;;;18.10;59.20;;;;;;2073809;28;20088;-84
2021/06/10 00:06:26;;;;;;;1.15;0.70;;;18.00;59.20;;;;;;2071333;28;20072;-84
2021/06/10 00:07:27;;;;;;;1.65;0.73;;;18.10;59.30;;;;;;2070664;28;20061;-84
2021/06/10 00:08:27;;;;;;;1.15;0.70;;;18.00;59.30;;;;;;2067678;28;20029;-84
2021/06/10 00:09:28;;;;;;;1.20;0.70;;;18.00;59.30;;;;;;2071908;28;20033;-84
2021/06/10 00:10:31;;;;;;;2.28;0.77;;;18.00;59.40;;;;;;2067478;28;20045;-84
2021/06/10 00:11:31;;;;;;;0.70;0.60;;;18.00;59.40;;;;;;2071449;28;20104;-84
2021/06/10 00:12:32;;;;;;;1.25;0.70;;;18.00;59.40;;;;;;2066311;28;20520;-83
2021/06/10 00:13:33;;;;;;;1.00;0.70;;;18.00;59.50;;;;;;2072820;28;20029;-84
2021/06/10 00:14:33;;;;;;;0.90;0.70;;;18.00;59.50;;;;;;2076416;28;20373;-84
2021/06/10 00:15:35;;;;;;;1.10;0.70;;;17.90;59.50;;;;;;2065120;28;20054;-84
2021/06/10 00:16:36;;;;;;;1.52;0.70;;;18.00;59.60;;;;;;2077648;28;20014;-84
2021/06/10 00:17:37;;;;;;;1.10;0.60;;;17.90;59.60;;;;;;2080178;28;20498;-84
2021/06/10 00:18:37;;;;;;;1.65;0.70;;;18.00;59.70;;;;;;2080547;28;20034;-84
2021/06/10 00:19:38;;;;;;;1.23;0.70;;;18.00;60.40;;;;;;2073356;28;20034;-83
2021/06/10 00:20:40;;;;;;;1.42;0.80;;;17.90;59.80;;;;;;2069843;28;20033;-83
2021/06/10 00:21:41;;;;;;;1.13;0.63;;;18.00;60.00;;;;;;2064003;28;20030;-84
2021/06/10 00:22:42;;;;;;;0.93;0.60;;;17.90;60.00;;;;;;2071884;28;20028;-84
2021/06/10 00:23:43;;;;;;;1.13;0.60;;;17.90;60.10;;;;;;2076303;28;20205;-83
2021/06/10 00:24:43;;;;;;;1.90;1.10;;;17.90;60.20;;;;;;2063759;28;20573;-83
2021/06/10 00:25:44;;;;;;;0.82;0.60;;;17.90;60.30;;;;;;2064312;28;20026;-83
2021/06/10 00:26:45;;;;;;;1.20;0.80;;;17.90;60.40;;;;;;2061341;28;20026;-83
2021/06/10 00:27:46;;;;;;;1.25;0.70;;;17.90;60.50;;;;;;2077643;28;20056;-83
2021/06/10 00:28:47;;;;;;;1.15;0.80;;;17.90;60.50;;;;;;2074020;28;20030;-83
2021/06/10 00:29:51;;;;;;;1.30;0.60;;;17.90;60.50;;;;;;2071473;28;20034;-83
2021/06/10 00:30:51;;;;;;;1.23;0.70;;;17.80;60.40;;;;;;2064451;28;20019;-84
2021/06/10 00:31:52;;;;;;;1.52;0.60;;;17.80;60.40;;;;;;2078308;28;20096;-83
2021/06/10 00:32:54;;;;;;;1.42;0.70;;;17.80;60.30;;;;;;2078753;28;20033;-84
2021/06/10 00:33:55;;;;;;;1.30;0.75;;;17.80;60.40;;;;;;2073333;28;20017;-83
2021/06/10 00:34:55;;;;;;;1.10;0.60;;;17.80;61.00;;;;;;2067097;28;20033;-83
2021/06/10 00:35:56;;;;;;;1.40;0.80;;;17.80;60.40;;;;;;2057729;28;20031;-83
2021/06/10 00:36:57;;;;;;;1.35;0.73;;;17.80;60.40;;;;;;2063889;28;20065;-84
2021/06/10 00:37:59;;;;;;;1.95;0.70;;;17.70;60.40;;;;;;2068461;28;20030;-84
2021/06/10 00:39:00;;;;;;;0.98;0.60;;;17.80;60.50;;;;;;2075308;28;20037;-83
2021/06/10 00:40:01;;;;;;;1.20;0.70;;;17.70;60.50;;;;;;2076509;28;20028;-83
2021/06/10 00:41:03;;;;;;;1.52;0.80;;;17.70;60.50;;;;;;2063623;28;20022;-84
2021/06/10 00:42:04;;;;;;;1.05;0.60;;;17.70;60.50;;;;;;2072111;28;20021;-83
2021/06/10 00:43:05;;;;;;;1.10;0.70;;;17.70;60.50;;;;;;2078465;28;20041;-83
2021/06/10 00:44:08;;;;;;;1.08;0.70;;;17.70;60.60;;;;;;2063803;28;20432;-84
2021/06/10 00:45:11;;;;;;;1.42;0.70;;;17.70;60.70;;;;;;2072444;28;20018;-84
2021/06/10 00:46:12;;;;;;;0.73;0.60;;;17.70;60.80;;;;;;2066073;28;20014;-84
2021/06/10 00:47:13;;;;;;;1.42;0.80;;;17.70;60.80;;;;;;2063087;28;20076;-83
2021/06/10 00:48:14;;;;;;;0.93;0.63;;;17.70;60.80;;;;;;2055661;28;20027;-83
2021/06/10 00:49:14;;;;;;;1.60;0.77;;;17.70;60.90;;;;;;2069426;28;20093;-84
2021/06/10 00:50:23;;;;;;;1.25;0.70;;;17.70;60.90;;;;;;2079873;28;20120;-83
2021/06/10 00:51:23;;;;;;;1.13;0.52;;;17.70;61.00;;;;;;2081902;28;20028;-83
2021/06/10 00:52:24;;;;;;;1.92;0.90;;;17.70;61.60;;;;;;2075373;28;20518;-83
2021/06/10 00:53:25;;;;;;;0.85;0.70;;;17.60;61.00;;;;;;2076866;28;20087;-84
2021/06/10 00:54:26;;;;;;;1.15;0.73;;;17.60;61.10;;;;;;2070310;28;20116;-84
2021/06/10 00:55:27;;;;;;;1.13;0.70;;;17.60;61.10;;;;;;2063205;28;20014;-84
2021/06/10 00:56:27;;;;;;;1.75;0.85;;;17.60;61.20;;;;;;2071880;28;20041;-84
2021/06/10 00:57:28;;;;;;;1.80;0.95;;;17.60;61.20;;;;;;2063859;28;20483;-84
2021/06/10 00:58:29;;;;;;;1.15;0.80;;;17.60;61.30;;;;;;2072047;28;20044;-84
2021/06/10 00:59:30;;;;;;;1.73;0.80;;;17.60;61.40;;;;;;2075409;28;20030;-84
2021/06/10 01:00:30;;;;;;;1.55;0.80;;;17.60;61.40;;;;;;2076548;28;20026;-84
2021/06/10 01:01:31;;;;;;;1.48;0.70;;;17.60;61.50;;;;;;2071518;28;20034;-83
2021/06/10 01:02:32;;;;;;;1.10;0.70;;;17.60;61.50;;;;;;2071571;28;20030;-84
2021/06/10 01:03:32;;;;;;;1.48;0.70;;;17.60;61.50;;;;;;2065122;28;20030;-84
2021/06/10 01:04:33;;;;;;;0.90;0.70;;;17.60;62.20;;;;;;2054764;28;20030;-83
2021/06/10 01:05:35;;;;;;;1.33;0.90;;;17.60;61.60;;;;;;2057806;28;20065;-84
2021/06/10 01:06:41;;;;;;;1.25;0.70;;;17.50;61.50;;;;;;2071960;28;20084;-83
2021/06/10 01:08:15;;;;;;;1.55;0.80;;;17.60;61.60;;;;;;2083215;28;20018;-84
2021/06/10 01:09:26;;;;;;;2.45;0.77;;;17.50;61.50;;;;;;2083026;28;20025;-84
2021/06/10 01:10:50;;;;;;;1.50;0.85;;;17.50;61.50;;;;;;2076608;28;20036;-84
2021/06/10 01:12:13;;;;;;;0.57;0.57;;;17.50;61.40;;;;;;2069554;28;20042;-84
2021/06/10 01:13:35;;;;;;;1.40;0.70;;;17.50;61.40;;;;;;2074402;28;20125;-83
2021/06/10 01:15:02;;;;;;;1.95;0.90;;;17.50;61.40;;;;;;2079342;28;20026;-84
2021/06/10 01:16:04;;;;;;;1.15;0.70;;;17.40;61.30;;;;;;2062305;28;20036;-84
2021/06/10 01:17:05;;;;;;;1.85;0.77;;;17.40;61.30;;;;;;2072000;28;20504;-84
2021/06/10 01:18:07;;;;;;;1.60;0.70;;;17.40;61.40;;;;;;2071814;28;20122;-84
2021/06/10 01:19:22;;;;;;;1.35;0.73;;;17.40;61.50;;;;;;2072235;28;20060;-83
2021/06/10 01:20:27;;;;;;;1.08;0.65;;;17.40;61.60;;;;;;2082835;28;20025;-82
2021/06/10 01:21:28;;;;;;;1.17;0.73;;;17.40;61.60;;;;;;2074249;28;20036;-84
2021/06/10 01:22:53;;;;;;;1.73;0.80;;;17.40;61.60;;;;;;2063839;28;20061;-84
2021/06/10 01:24:39;;;;;;;1.23;0.73;;;17.40;61.70;;;;;;2068817;28;20034;-84
2021/06/10 01:25:52;;;;;;;1.50;0.80;;;17.30;61.70;;;;;;2078365;28;20120;-85
2021/06/10 01:27:22;;;;;;;3.22;0.65;;;17.30;61.60;;;;;;2076911;28;20487;-84
2021/06/10 01:28:36;;;;;;;0.88;0.60;;;17.30;61.70;;;;;;2069278;28;20060;-84
2021/06/10 01:29:39;;;;;;;1.23;0.70;;;17.30;61.60;;;;;;2078632;28;20397;-83
2021/06/10 01:30:51;;;;;;;1.17;0.50;;;17.30;61.50;;;;;;2079055;28;20029;-83
2021/06/10 01:31:53;;;;;;;1.00;0.70;;;17.30;61.50;;;;;;2078917;28;20491;-84
2021/06/10 01:33:11;;;;;;;1.80;0.60;;;17.30;61.50;;;;;;2078833;28;20075;-83
2021/06/10 01:34:13;;;;;;;1.70;0.70;;;17.30;61.50;;;;;;2080973;28;20396;-84
2021/06/10 01:35:15;;;;;;;1.65;0.73;;;17.30;61.50;;;;;;2074301;28;20034;-83
2021/06/10 01:36:29;;;;;;;1.42;0.70;;;17.30;61.50;;;;;;2076278;28;20503;-84
2021/06/10 01:37:32;;;;;;;1.58;0.60;;;17.30;61.70;;;;;;2085330;28;20024;-84
2021/06/10 01:38:33;;;;;;;1.20;0.60;;;17.30;61.70;;;;;;2079072;28;20076;-83
2021/06/10 01:39:34;;;;;;;1.02;0.80;;;17.30;61.70;;;;;;2072891;28;20022;-83
2021/06/10 01:40:35;;;;;;;0.98;0.60;;;17.30;61.80;;;;;;2072926;28;20139;-84
2021/06/10 01:41:37;;;;;;;2.60;0.80;;;17.30;61.90;;;;;;2074630;28;20038;-84
2021/06/10 01:42:40;;;;;;;1.83;0.70;;;17.30;62.00;;;;;;2078869;28;20104;-84
2021/06/10 01:43:42;;;;;;;1.38;0.80;;;17.20;62.00;;;;;;2069866;28;20030;-84
2021/06/10 01:44:43;;;;;;;1.38;0.70;;;17.20;62.10;;;;;;2065444;28;20059;-84
2021/06/10 01:45:48;;;;;;;1.45;0.73;;;17.20;62.20;;;;;;2073636;28;20018;-84
2021/06/10 01:46:51;;;;;;;1.02;0.63;;;17.20;62.40;;;;;;2073531;28;20038;-84
2021/06/10 01:47:52;;;;;;;1.98;0.80;;;17.20;62.50;;;;;;2065789;28;20038;-84
2021/06/10 01:48:53;;;;;;;1.30;0.90;;;17.20;62.60;;;;;;2061105;28;20031;-84
2021/06/10 01:49:57;;;;;;;1.20;0.73;;;17.20;62.70;;;;;;2062242;28;20433;-84
2021/06/10 01:51:01;;;;;;;0.73;0.65;;;17.20;62.80;;;;;;2072446;28;20044;-84
2021/06/10 01:52:04;;;;;;;1.20;0.80;;;17.20;62.90;;;;;;2076153;28;20125;-83
2021/06/10 01:53:06;;;;;;;1.45;0.90;;;17.10;62.90;;;;;;2074198;28;20025;-84
2021/06/10 01:54:07;;;;;;;1.20;0.73;;;17.10;62.90;;;;;;2074777;28;20120;-84
2021/06/10 01:55:12;;;;;;;1.55;0.80;;;17.10;62.90;;;;;;2074477;28;20022;-84
2021/06/10 01:56:14;;;;;;;0.90;0.63;;;17.20;62.90;;;;;;2078430;28;20163;-84
2021/06/10 01:57:16;;;;;;;2.05;0.70;;;17.10;62.80;;;;;;2080143;28;20056;-83
2021/06/10 01:58:19;;;;;;;1.50;0.93;;;17.10;62.90;;;;;;2081472;28;20121;-84
2021/06/10 01:59:23;;;;;;;0.77;0.63;;;17.10;62.90;;;;;;2079201;28;20399;-83
2021/06/10 02:00:25;;;;;;;1.60;0.88;;;17.10;62.90;;;;;;2081422;28;20068;-83
2021/06/10 02:01:28;;;;;;;0.93;0.70;;;17.10;63.00;;;;;;2077627;28;20365;-83
2021/06/10 02:02:29;;;;;;;2.28;0.73;;;17.10;63.00;;;;;;2077732;28;20022;-83
2021/06/10 02:03:31;;;;;;;1.15;0.80;;;17.10;63.10;;;;;;2073027;28;20041;-83
2021/06/10 02:04:33;;;;;;;1.27;0.80;;;17.10;63.10;;;;;;2072647;28;20026;-84
2021/06/10 02:05:36;;;;;;;1.25;0.77;;;17.10;63.10;;;;;;2073416;28;20037;-83
2021/06/10 02:06:43;;;;;;;2.10;0.90;;;17.10;63.20;;;;;;2069459;28;20019;-83
2021/06/10 02:07:44;;;;;;;1.65;0.98;;;17.00;63.20;;;;;;2074590;28;20117;-83
2021/06/10 02:08:47;;;;;;;1.38;0.80;;;17.00;63.20;;;;;;2079152;28;20033;-83
2021/06/10 02:09:48;;;;;;;0.88;0.68;;;17.00;63.30;;;;;;2073657;28;20022;-83
2021/06/10 02:10:55;;;;;;;1.35;0.88;;;17.00;63.30;;;;;;2059792;28;20497;-83
2021/06/10 02:11:57;;;;;;;1.35;0.80;;;17.00;64.10;;;;;;2063780;28;20100;-84
2021/06/10 02:12:58;;;;;;;1.38;0.90;;;17.00;63.50;;;;;;2072623;28;20429;-84
2021/06/10 02:13:59;;;;;;;1.75;0.80;;;17.00;63.50;;;;;;2072065;28;20112;-83
2021/06/10 02:15:07;;;;;;;1.10;0.93;;;17.00;63.60;;;;;;2073737;28;20030;-83
2021/06/10 02:16:08;;;;;;;2.13;0.90;;;16.90;63.60;;;;;;2075807;28;20384;-84
2021/06/10 02:17:09;;;;;;;1.52;0.90;;;16.90;63.60;;;;;;2072532;28;20026;-83
2021/06/10 02:18:11;;;;;;;2.70;0.98;;;16.90;63.60;;;;;;2072609;28;20030;-83
2021/06/10 02:19:14;;;;;;;2.08;0.90;;;16.80;63.50;;;;;;2072742;28;20030;-83
2021/06/10 02:20:17;;;;;;;1.98;0.90;;;16.80;63.60;;;;;;2053960;28;20031;-83
2021/06/10 02:21:18;;;;;;;1.20;0.90;;;16.80;63.60;;;;;;2064890;28;20409;-83
2021/06/10 02:22:19;;;;;;;1.40;0.80;;;16.80;63.50;;;;;;2075266;28;20054;-83
2021/06/10 02:23:20;;;;;;;2.13;1.02;;;16.80;63.50;;;;;;2072840;28;20026;-83
2021/06/10 02:24:20;;;;;;;1.27;0.98;;;16.80;63.50;;;;;;2068346;28;20031;-83
2021/06/10 02:25:21;;;;;;;1.95;1.10;;;16.80;63.50;;;;;;2069126;28;20076;-83
2021/06/10 02:26:22;;;;;;;1.35;0.90;;;16.70;63.40;;;;;;2066572;28;20022;-83
2021/06/10 02:27:22;;;;;;;2.15;1.10;;;16.70;63.40;;;;;;2067518;28;20045;-83
2021/06/10 02:28:23;;;;;;;1.73;1.00;;;16.70;63.40;;;;;;2074951;28;20033;-83
2021/06/10 02:29:24;;;;;;;1.15;0.90;;;16.70;63.40;;;;;;2072599;28;20057;-83
2021/06/10 02:30:25;;;;;;;1.77;1.00;;;16.70;63.50;;;;;;2072042;28;20080;-83
2021/06/10 02:31:26;;;;;;;1.25;1.00;;;16.60;63.50;;;;;;2072638;28;20030;-83
2021/06/10 02:32:26;;;;;;;1.48;1.00;;;16.60;63.60;;;;;;2064294;28;20049;-83
2021/06/10 02:33:27;;;;;;;1.40;1.00;;;16.60;63.70;;;;;;2080645;28;20026;-83
2021/06/10 02:34:28;;;;;;;2.70;1.00;;;16.60;63.70;;;;;;2072859;28;20080;-83
2021/06/10 02:35:28;;;;;;;3.35;1.20;;;16.50;63.70;;;;;;2063797;28;20073;-83
2021/06/10 02:36:30;;;;;;;1.30;0.90;;;16.60;63.80;;;;;;2077934;28;20030;-83
2021/06/10 02:37:31;;;;;;;1.42;1.00;;;16.50;63.80;;;;;;2072364;28;20420;-83
2021/06/10 02:38:32;;;;;;;1.23;0.90;;;16.60;63.90;;;;;;2075644;28;20049;-83
2021/06/10 02:39:39;;;;;;;1.67;0.95;;;16.50;63.90;;;;;;2072646;28;20134;-82
2021/06/10 02:40:43;;;;;;;1.48;0.98;;;16.50;63.90;;;;;;2072090;28;20032;-83
2021/06/10 02:41:48;;;;;;;1.33;1.10;;;16.50;64.00;;;;;;2075213;28;20587;-83
2021/06/10 02:42:49;;;;;;;2.33;1.10;;;16.50;64.10;;;;;;2075279;28;20022;-83
2021/06/10 02:43:53;;;;;;;2.28;1.20;;;16.50;64.20;;;;;;2068926;28;20034;-83
2021/06/10 02:44:55;;;;;;;1.35;0.93;;;16.50;64.30;;;;;;2061039;28;20043;-84
2021/06/10 02:45:56;;;;;;;1.92;1.00;;;16.50;64.30;;;;;;2068543;28;20112;-83
2021/06/10 02:47:02;;;;;;;1.70;0.93;;;16.50;64.50;;;;;;2080799;28;20030;-83
2021/06/10 02:48:03;;;;;;;1.55;1.10;;;16.50;64.60;;;;;;2080154;28;20459;-84
2021/06/10 02:49:05;;;;;;;1.52;0.90;;;16.50;64.80;;;;;;2078977;28;20469;-83
2021/06/10 02:50:11;;;;;;;1.52;0.90;;;16.50;64.80;;;;;;2052205;28;20027;-83
2021/06/10 02:51:12;;;;;;;2.38;1.10;;;16.40;64.90;;;;;;2060381;28;20122;-84
2021/06/10 02:52:15;;;;;;;1.77;1.00;;;16.40;65.00;;;;;;2072941;28;20030;-83
2021/06/10 02:53:19;;;;;;;1.58;0.98;;;16.40;65.10;;;;;;2067460;28;20117;-83
2021/06/10 02:54:21;;;;;;;1.30;0.82;;;16.40;65.20;;;;;;2073066;28;20029;-83
2021/06/10 02:55:23;;;;;;;1.40;1.08;;;16.40;65.30;;;;;;2080166;28;20017;-83
2021/06/10 02:56:26;;;;;;;1.35;0.90;;;16.40;65.40;;;;;;2064534;28;20034;-83
2021/06/10 02:57:29;;;;;;;1.38;1.00;;;16.40;65.50;;;;;;2064767;28;20023;-83
2021/06/10 02:58:30;;;;;;;1.58;0.93;;;16.30;65.60;;;;;;2068762;28;20530;-83
2021/06/10 02:59:33;;;;;;;1.80;1.10;;;16.40;65.80;;;;;;2080696;28;20033;-83
2021/06/10 03:00:34;;;;;;;1.52;0.98;;;16.30;65.80;;;;;;2075612;28;20030;-83
2021/06/10 03:01:38;;;;;;;1.38;1.08;;;16.30;65.90;;;;;;2073256;28;20037;-83
2021/06/10 03:02:39;;;;;;;1.55;1.10;;;16.30;66.00;;;;;;2066173;28;20029;-83
2021/06/10 03:03:42;;;;;;;1.30;0.90;;;16.30;66.10;;;;;;2064639;28;20037;-83
2021/06/10 03:04:46;;;;;;;1.35;1.00;;;16.30;66.20;;;;;;2069943;28;20018;-82
2021/06/10 03:05:48;;;;;;;2.05;1.13;;;16.30;66.20;;;;;;2076519;28;20022;-83
2021/06/10 03:06:50;;;;;;;1.77;1.10;;;16.30;66.30;;;;;;2078048;28;20025;-83
2021/06/10 03:07:52;;;;;;;1.90;1.00;;;16.30;66.30;;;;;;2072636;28;20037;-83
2021/06/10 03:08:53;;;;;;;1.73;1.10;;;16.30;66.30;;;;;;2060773;28;20026;-82
2021/06/10 03:09:54;;;;;;;1.95;1.10;;;16.30;66.40;;;;;;2068834;28;20030;-83
2021/06/10 03:11:00;;;;;;;1.83;1.20;;;16.30;66.40;;;;;;2068000;28;20057;-82
2021/06/10 03:12:02;;;;;;;2.20;1.23;;;16.20;66.40;;;;;;2073098;28;20073;-82
2021/06/10 03:13:04;;;;;;;1.85;1.20;;;16.20;66.40;;;;;;2075652;28;20583;-82
2021/06/10 03:14:10;;;;;;;2.50;1.40;;;16.20;66.50;;;;;;2069866;28;20037;-83
2021/06/10 03:15:11;;;;;;;2.40;1.30;;;16.20;66.50;;;;;;2080146;28;20017;-83
2021/06/10 03:16:13;;;;;;;2.25;1.40;;;16.20;66.50;;;;;;2076866;28;20084;-83
2021/06/10 03:17:17;;;;;;;1.98;1.20;;;16.20;66.60;;;;;;2073804;28;20072;-83
2021/06/10 03:18:18;;;;;;;2.20;1.20;;;16.10;66.70;;;;;;2075962;28;20025;-83
2021/06/10 03:19:19;;;;;;;2.70;1.48;;;16.10;66.80;;;;;;2080292;28;20018;-83
2021/06/10 03:20:20;;;;;;;1.70;1.10;;;16.10;66.90;;;;;;2080519;28;20496;-83
2021/06/10 03:21:21;;;;;;;1.92;1.30;;;16.10;67.00;;;;;;2076767;28;20041;-83
2021/06/10 03:22:22;;;;;;;2.22;1.27;;;16.10;67.10;;;;;;2071935;28;20025;-83
2021/06/10 03:23:23;;;;;;;1.52;1.20;;;16.10;67.10;;;;;;2071906;28;20030;-82
2021/06/10 03:24:25;;;;;;;2.22;1.50;;;16.00;67.00;;;;;;2072397;28;20037;-82
2021/06/10 03:25:26;;;;;;;2.45;1.30;;;16.10;67.20;;;;;;2071985;28;20052;-82
2021/06/10 03:26:28;;;;;;;2.55;1.50;;;16.10;67.20;;;;;;2064890;28;20050;-83
2021/06/10 03:27:31;;;;;;;1.75;1.27;;;16.00;67.20;;;;;;2064711;28;20477;-82
2021/06/10 03:28:33;;;;;;;2.13;1.50;;;16.00;67.20;;;;;;2079907;28;20095;-83
2021/06/10 03:29:35;;;;;;;1.55;1.20;;;16.00;67.30;;;;;;2073554;28;20025;-82
2021/06/10 03:30:37;;;;;;;2.03;1.45;;;16.00;67.40;;;;;;2072685;28;20091;-83
2021/06/10 03:31:38;;;;;;;2.28;1.50;;;16.00;67.40;;;;;;2067894;28;20038;-83
2021/06/10 03:32:39;;;;;;;2.00;1.50;;;16.00;67.50;;;;;;2071717;28;20578;-83
2021/06/10 03:33:40;;;;;;;1.95;1.20;;;16.00;67.60;;;;;;2064972;28;20045;-83
2021/06/10 03:34:43;;;;;;;1.50;1.30;;;16.00;67.60;;;;;;2072176;28;20045;-82
2021/06/10 03:35:45;;;;;;;2.03;1.48;;;16.00;67.60;;;;;;2083885;28;20041;-83
2021/06/10 03:36:46;;;;;;;2.58;1.40;;;16.00;67.70;;;;;;2085421;28;20133;-82
2021/06/10 03:37:48;;;;;;;2.03;1.40;;;16.00;67.80;;;;;;2073959;28;20057;-81
2021/06/10 03:38:51;;;;;;;1.90;1.55;;;15.90;67.90;;;;;;2074544;28;20030;-83
2021/06/10 03:39:53;;;;;;;2.13;1.45;;;15.90;68.00;;;;;;2090633;28;20006;-81
2021/06/10 03:40:55;;;;;;;2.08;1.30;;;15.90;68.10;;;;;;2077568;28;20130;-82
2021/06/10 03:41:56;;;;;;;3.60;1.67;;;15.90;68.10;;;;;;2073118;28;20117;-82
2021/06/10 03:42:57;;;;;;;2.47;1.48;;;15.90;68.20;;;;;;2086266;28;20555;-83
2021/06/10 03:43:59;;;;;;;2.33;1.58;;;15.90;68.30;;;;;;2078334;28;20105;-82
2021/06/10 03:45:00;;;;;;;2.00;1.35;;;15.80;68.40;;;;;;2072447;28;20085;-82
2021/06/10 03:46:05;;;;;;;2.20;1.50;;;15.80;68.50;;;;;;2086562;28;20050;-82
2021/06/10 03:47:06;;;;;;;2.88;1.58;;;15.80;68.60;;;;;;2088935;28;20024;-82
2021/06/10 03:48:10;;;;;;;2.60;1.50;;;15.80;68.60;;;;;;2082102;28;20037;-83
2021/06/10 03:49:11;;;;;;;2.70;1.55;;;15.80;68.80;;;;;;2086094;28;20014;-82
2021/06/10 03:50:13;;;;;;;2.15;1.60;;;15.80;68.80;;;;;;2084735;28;20027;-83
2021/06/10 03:51:18;;;;;;;2.40;1.55;;;15.80;68.90;;;;;;2070358;28;20034;-83
2021/06/10 03:52:23;;;;;;;2.75;1.80;;;15.80;69.00;;;;;;2073001;28;20041;-83
2021/06/10 03:53:24;;;;;;;2.22;1.70;;;15.70;69.10;;;;;;2073712;28;20034;-83
2021/06/10 03:54:25;;;;;;;2.58;1.58;;;15.80;69.10;;;;;;2076656;28;20504;-83
2021/06/10 03:55:25;;;;;;;2.35;1.58;;;15.80;69.10;;;;;;2073774;28;20034;-83
2021/06/10 03:56:26;;;;;;;2.90;1.60;;;15.80;69.00;;;;;;2077709;28;20041;-82
2021/06/10 03:57:27;;;;;;;2.80;1.90;;;15.80;69.00;;;;;;2069375;28;20069;-83
2021/06/10 03:58:27;;;;;;;3.05;1.80;;;15.80;69.00;;;;;;2068548;28;20116;-83
2021/06/10 03:59:28;;;;;;;2.50;1.70;;;15.80;69.00;;;;;;2064495;28;20121;-82
2021/06/10 04:00:29;;;;;;;3.40;1.60;;;15.90;69.10;;;;;;2072250;28;20096;-83
2021/06/10 04:01:30;;;;;;;2.88;1.88;;;15.90;69.00;;;;;;2078465;28;20025;-83
2021/06/10 04:02:31;;;;;;;2.55;1.60;;;15.90;69.00;;;;;;2079265;28;20531;-83
2021/06/10 04:03:32;;;;;;;2.78;1.80;;;16.00;69.10;;;;;;2075106;28;20037;-83
2021/06/10 04:04:32;;;;;;;2.13;1.63;;;16.00;69.20;;;;;;2068396;28;20041;-82
2021/06/10 04:05:35;;;;;;;3.33;1.80;;;16.00;69.10;;;;;;2081157;28;20068;-82
2021/06/10 04:06:38;;;;;;;4.22;1.90;;;16.00;69.10;;;;;;2072244;28;20128;-82
2021/06/10 04:07:38;;;;;;;2.42;1.73;;;16.00;69.10;;;;;;2075103;28;20057;-82
2021/06/10 04:08:39;;;;;;;2.67;1.70;;;16.00;69.10;;;;;;2082123;28;20050;-82
2021/06/10 04:09:40;;;;;;;2.92;1.90;;;16.10;69.20;;;;;;2090453;28;20044;-83
2021/06/10 04:10:40;;;;;;;3.17;2.00;;;16.10;69.20;;;;;;2076123;28;20029;-83
2021/06/10 04:11:41;;;;;;;2.72;1.75;;;16.10;69.10;;;;;;2063037;28;20125;-83
2021/06/10 04:12:42;;;;;;;2.35;1.77;;;16.20;69.10;;;;;;2060718;28;20019;-83
2021/06/10 04:13:42;;;;;;;2.90;1.67;;;16.20;69.10;;;;;;2065550;28;20022;-83
2021/06/10 04:14:43;;;;;;;3.15;2.03;;;16.20;69.10;;;;;;2071817;28;20053;-83
2021/06/10 04:15:44;;;;;;;3.15;2.03;;;16.30;69.00;;;;;;2064019;28;20500;-83
2021/06/10 04:16:45;;;;;;;3.45;2.10;;;16.30;69.00;;;;;;2072693;28;20396;-83
2021/06/10 04:17:46;;;;;;;3.22;1.90;;;16.40;69.00;;;;;;2071468;28;20146;-83
2021/06/10 04:18:46;;;;;;;3.53;2.33;;;16.40;68.90;;;;;;2062768;28;20031;-83
2021/06/10 04:19:47;;;;;;;3.22;1.95;;;16.40;68.90;;;;;;2076070;28;20431;-83
2021/06/10 04:20:49;;;;;;;3.30;2.42;;;16.40;69.60;;;;;;2077147;28;20100;-84
2021/06/10 04:21:50;;;;;;;3.00;2.20;;;16.50;69.00;;;;;;2070738;28;20042;-83
2021/06/10 04:22:50;;;;;;;3.78;2.35;;;16.50;68.90;;;;;;2063732;28;20030;-83
2021/06/10 04:23:52;;;;;;;4.63;2.70;;;16.50;68.90;;;;;;2064001;28;20066;-82
2021/06/10 04:24:52;;;;;;;3.08;2.10;;;16.60;68.80;;;;;;2075918;28;20030;-83
2021/06/10 04:25:53;;;;;;;3.67;2.47;;;16.60;68.80;;;;;;2073136;28;20057;-82
2021/06/10 04:26:54;;;;;;;3.35;2.40;;;16.60;68.70;;;;;;2068127;28;20038;-82
2021/06/10 04:27:54;;;;;;;3.53;2.20;;;16.70;68.60;;;;;;2071682;28;20073;-82
2021/06/10 04:28:55;;;;;;;3.95;2.72;;;16.70;69.20;;;;;;2070026;28;20058;-82
2021/06/10 04:29:56;;;;;;;3.60;2.10;;;16.70;68.50;;;;;;2076631;28;20030;-82
2021/06/10 04:30:57;;;;;;;4.18;2.65;;;16.80;68.50;;;;;;2071605;28;20026;-82
2021/06/10 04:31:58;;;;;;;4.07;2.55;;;16.80;68.40;;;;;;2059460;28;20046;-82
2021/06/10 04:32:59;;;;;;;3.70;2.70;;;16.80;68.40;;;;;;2077646;28;20041;-83
2021/06/10 04:33:59;;;;;;;4.10;2.50;;;16.90;68.40;;;;;;2073188;28;20033;-82
2021/06/10 04:35:02;;;;;;;3.58;2.53;;;16.90;68.30;;;;;;2073201;28;20044;-82
2021/06/10 04:36:04;;;;;;;4.18;2.75;;;16.90;68.30;;;;;;2063618;28;20034;-82
2021/06/10 04:37:05;;;;;;;4.35;2.38;;;16.90;68.30;;;;;;2058965;28;20038;-82
2021/06/10 04:38:06;;;;;;;3.70;2.50;;;16.90;68.20;;;;;;2067670;28;20081;-82
2021/06/10 04:39:07;;;;;;;4.05;2.60;;;17.00;68.30;;;;;;2070647;28;20037;-82
2021/06/10 04:40:08;;;;;;;3.85;2.65;;;16.90;68.20;;;;;;2062891;28;20503;-83
2021/06/10 04:41:10;;;;;;;5.78;2.45;;;17.00;68.20;;;;;;2071348;28;20026;-83
2021/06/10 04:42:11;;;;;;;4.03;2.55;;;17.00;68.20;;;;;;2076509;28;20032;-82
2021/06/10 04:43:13;;;;;;;3.78;2.38;;;17.00;68.20;;;;;;2074610;28;20404;-82
2021/06/10 04:44:13;;;;;;;3.85;2.65;;;17.00;68.20;;;;;;2076529;28;20084;-83
2021/06/10 04:45:14;;;;;;;4.47;2.53;;;17.00;68.20;;;;;;2076412;28;20014;-82
2021/06/10 04:46:15;;;;;;;3.80;2.60;;;17.10;68.20;;;;;;2076735;28;20025;-82
2021/06/10 04:47:17;;;;;;;4.00;2.70;;;17.10;68.20;;;;;;2076043;28;20427;-82
2021/06/10 04:48:18;;;;;;;4.70;2.63;;;17.10;68.20;;;;;;2070610;28;20030;-83
2021/06/10 04:49:18;;;;;;;3.85;2.63;;;17.10;68.20;;;;;;2068708;28;20448;-82
2021/06/10 04:50:19;;;;;;;3.55;2.40;;;17.20;68.20;;;;;;2078589;28;20038;-82
2021/06/10 04:51:20;;;;;;;3.67;2.80;;;17.20;68.10;;;;;;2077278;28;20025;-82
2021/06/10 04:52:20;;;;;;;4.35;2.90;;;17.20;68.10;;;;;;2062032;28;20058;-83
2021/06/10 04:53:22;;;;;;;3.70;2.70;;;17.30;68.00;;;;;;2065241;28;20138;-82
2021/06/10 04:54:23;;;;;;;5.00;2.80;;;17.40;68.00;;;;;;2071165;28;20488;-82
2021/06/10 04:55:24;;;;;;;3.13;2.45;;;17.40;67.90;;;;;;2076959;28;20037;-82
2021/06/10 04:56:24;;;;;;;3.60;2.80;;;17.50;67.80;;;;;;2076412;28;20120;-83
2021/06/10 04:57:25;;;;;;;4.40;2.90;;;17.60;67.70;;;;;;2070354;28;20025;-83
2021/06/10 04:58:26;;;;;;;3.65;2.75;;;17.60;67.40;;;;;;2066644;28;20038;-82
2021/06/10 04:59:26;;;;;;;4.00;2.88;;;17.70;67.30;;;;;;2067584;28;20117;-83
2021/06/10 05:00:27;;;;;;;3.33;2.63;;;17.80;67.20;;;;;;2079199;28;20021;-83
2021/06/10 05:01:28;;;;;;;4.53;2.60;;;17.90;67.00;;;;;;2080110;28;20025;-82
2021/06/10 05:02:28;;;;;;;3.42;2.60;;;18.00;66.80;;;;;;2075083;28;20420;-82
2021/06/10 05:03:29;;;;;;;3.90;2.60;;;18.10;66.60;;;;;;2068720;28;20501;-82
2021/06/10 05:04:30;;;;;;;3.17;2.30;;;18.20;66.50;;;;;;2075182;28;20096;-82
2021/06/10 05:05:30;;;;;;;3.20;2.30;;;18.20;66.30;;;;;;2078951;28;20544;-83
2021/06/10 05:06:31;;;;;;;3.20;2.35;;;18.30;66.10;;;;;;2073703;28;20065;-81
2021/06/10 05:07:32;;;;;;;4.00;2.83;;;18.40;65.90;;;;;;2078303;28;20059;-82
2021/06/10 05:08:33;;;;;;;3.40;2.50;;;18.50;65.90;;;;;;2072890;28;20037;-82
2021/06/10 05:09:33;;;;;;;4.25;2.40;;;18.50;65.70;;;;;;2079770;28;20029;-83
2021/06/10 05:10:35;;;;;;;4.72;2.47;;;18.70;65.70;;;;;;2077816;28;20034;-83
2021/06/10 05:11:35;;;;;;;3.38;2.45;;;18.70;65.50;;;;;;2076794;28;20042;-82
2021/06/10 05:12:36;;;;;;;3.78;2.58;;;18.80;65.50;;;;;;2075441;28;20029;-82
2021/06/10 05:13:37;;;;;;;3.22;2.45;;;18.80;65.40;;;;;;2080629;28;20064;-82
2021/06/10 05:14:37;;;;;;;3.75;2.50;;;18.90;65.20;;;;;;2079706;28;20491;-82
2021/06/10 05:15:38;;;;;;;4.10;2.67;;;18.90;65.10;;;;;;2067449;28;20023;-83
2021/06/10 05:16:39;;;;;;;4.18;2.42;;;19.00;65.00;;;;;;2067964;28;20499;-82
2021/06/10 05:17:39;;;;;;;3.83;2.42;;;19.10;64.90;;;;;;2066720;28;20053;-82
2021/06/10 05:18:41;;;;;;;3.72;2.42;;;19.10;64.70;;;;;;2071099;28;21808;-82
2021/06/10 05:19:42;;;;;;;4.25;2.53;;;19.20;64.60;;;;;;2070184;28;20079;-83
2021/06/10 05:20:44;;;;;;;3.80;2.70;;;19.30;64.60;;;;;;2080215;28;20654;-82
2021/06/10 05:21:45;;;;;;;3.95;2.50;;;19.30;64.40;;;;;;2080530;28;20029;-83
2021/06/10 05:22:45;;;;;;;3.97;2.80;;;19.40;64.30;;;;;;2080329;28;20033;-82
2021/06/10 05:23:46;;;;;;;3.10;2.40;;;19.40;64.20;;;;;;2072269;28;20022;-82
2021/06/10 05:24:47;;;;;;;3.50;2.60;;;19.50;64.10;;;;;;2069640;28;20042;-83
2021/06/10 05:25:47;;;;;;;3.25;2.30;;;19.60;64.00;;;;;;2052909;28;20053;-82